Dades meteomassalio
Diari Summary for Febrer 27, 2017 Units:  Metric    English   Both
« Previous Day
Next Day »
Diari Semanal Mensual Anual Personalitzat
  Maxima: Minima: Mijana:
Temperatura: -17.8 °C -16.9 °C -12.1 °C
Rosada: -17.8 °C -17.5 °C -15.5 °C
Humitat: Humidity % 41 % 69 %
Velocitat del vent: 0 km/h 0 km/h 13.5 km/h
Racha vent: 0 km/h - -
Vent:- - WNW
Pressio: 0 hPa 34246 hPa -
Pluja: 12.7 mm    
Historical Graphs
 
 
Tabular Data for Febrer 27, 2017
Time Temperature Dew Point Pressure Wind Wind Speed Wind Gust Humidity Rainfall Rate (Hourly) solar Conditions
-17.8 °C -17.8 °C 0 hPa Calm     Humidity % 0 mm SolarRadiationWatts/m^2 W/m2 Conditions
00:00 -15.2 °C -16.2 °C 34510.1 hPa Calm     89 % 0 mm 0.0 W/m2 CLR
00:05 -15.2 °C -16.3 °C 34510.1 hPa Calm     88 % 0 mm 0.0 W/m2 CLR
00:10 -15.3 °C -16.3 °C 34510.1 hPa Calm     88 % 0 mm 0.0 W/m2 CLR
00:15 -15.3 °C -16.3 °C 34510.1 hPa Calm     88 % 0 mm 0.0 W/m2 CLR
00:20 -15.4 °C -16.3 °C 34510.1 hPa Calm     89 % 0 mm 0.0 W/m2 CLR
00:25 -15.4 °C -16.4 °C 34510.1 hPa Calm     88 % 0 mm 0.0 W/m2 CLR
00:30 -15.4 °C -16.3 °C 34496.6 hPa Calm     89 % 0 mm 0.0 W/m2 CLR
00:35 -15.4 °C -16.3 °C 34496.6 hPa Calm     89 % 0 mm 0.0 W/m2 CLR
00:40 -15.4 °C -16.4 °C 34496.6 hPa Calm     89 % 0 mm 0.0 W/m2 CLR
00:45 -15.5 °C -16.4 °C 34496.6 hPa Calm     89 % 0 mm 0.0 W/m2 CLR
00:50 -15.6 °C -16.6 °C 34496.6 hPa Calm     89 % 0 mm 0.0 W/m2 CLR
00:55 -15.6 °C -16.6 °C 34496.6 hPa Calm     89 % 0 mm 0.0 W/m2 CLR
01:00 -15.7 °C -16.6 °C 34496.6 hPa Calm     89 % 0 mm 0.0 W/m2 CLR
01:05 -15.7 °C -16.6 °C 34496.6 hPa Calm     89 % 0 mm 0.0 W/m2 CLR
01:10 -15.7 °C -16.5 °C 34496.6 hPa Calm     90 % 0 mm 0.0 W/m2 CLR
01:15 -15.7 °C -16.5 °C 34496.6 hPa Calm     90 % 0 mm 0.0 W/m2 CLR
01:20 -15.6 °C -16.4 °C 34496.6 hPa Calm     90 % 0 mm 0.0 W/m2 CLR
01:25 -15.5 °C -16.3 °C 34496.6 hPa Calm     90 % 0 mm 0.0 W/m2 CLR
01:30 -15.6 °C -16.4 °C 34496.6 hPa Calm     90 % 0 mm 0.0 W/m2 CLR
01:35 -15.7 °C -16.5 °C 34496.6 hPa Calm     90 % 0 mm 0.0 W/m2 CLR
01:40 -15.8 °C -16.7 °C 34486.4 hPa Calm     89 % 0 mm 0.0 W/m2 CLR
01:45 -15.8 °C -16.7 °C 34486.4 hPa Calm     90 % 0 mm 0.0 W/m2 CLR
01:50 -15.9 °C -16.8 °C 34486.4 hPa Calm     89 % 0 mm 0.0 W/m2 CLR
01:55 -15.9 °C -16.8 °C 34486.4 hPa Calm     90 % 0 mm 0.0 W/m2 CLR
02:00 -16 °C -16.8 °C 34486.4 hPa Calm     90 % 0 mm 0.0 W/m2 CLR
02:06 -16 °C -16.8 °C 34486.4 hPa Calm     90 % 0 mm 0.0 W/m2 CLR
02:11 -16 °C -16.8 °C 34486.4 hPa Calm     90 % 0 mm 0.0 W/m2 CLR
02:16 -16.1 °C -16.9 °C 34486.4 hPa Calm     90 % 0 mm 0.0 W/m2 CLR
02:21 -16.2 °C -17 °C 34486.4 hPa Calm     90 % 0 mm 0.0 W/m2 CLR
02:26 -16.2 °C -17 °C 34486.4 hPa Calm     90 % 0 mm 0.0 W/m2 CLR
02:31 -16.2 °C -17.1 °C 34486.4 hPa Calm     90 % 0 mm 0.0 W/m2 CLR
02:36 -16.2 °C -17 °C 34486.4 hPa Calm     91 % 0 mm 0.0 W/m2 CLR
02:41 -16.2 °C -17 °C 34486.4 hPa Calm     91 % 0 mm 0.0 W/m2 CLR
02:46 -16.2 °C -16.9 °C 34476.3 hPa Calm     91 % 0 mm 0.0 W/m2 CLR
02:51 -16.1 °C -16.8 °C 34476.3 hPa Calm     91 % 0 mm 0.0 W/m2 CLR
02:56 -15.9 °C -16.6 °C 34476.3 hPa Calm     92 % 0 mm 0.0 W/m2 CLR
03:01 -15.9 °C -16.7 °C 34476.3 hPa Calm     91 % 0 mm 0.0 W/m2 CLR
03:06 -15.9 °C -16.7 °C 34476.3 hPa Calm     91 % 0 mm 0.0 W/m2 CLR
03:11 -16 °C -16.8 °C 34476.3 hPa Calm     91 % 0 mm 0.0 W/m2 CLR
03:16 -16.2 °C -16.9 °C 34476.3 hPa Calm     91 % 0 mm 0.0 W/m2 CLR
03:21 -16.2 °C -16.9 °C 34476.3 hPa Calm     91 % 0 mm 0.0 W/m2 CLR
03:26 -16.2 °C -16.9 °C 34462.7 hPa Calm     91 % 0 mm 0.0 W/m2 CLR
03:31 -16.2 °C -16.9 °C 34462.7 hPa Calm     91 % 0 mm 0.0 W/m2 CLR
03:36 -16.2 °C -16.8 °C 34462.7 hPa Calm     92 % 0 mm 0.0 W/m2 CLR
03:41 -16.1 °C -16.8 °C 34462.7 hPa Calm     92 % 0 mm 0.0 W/m2 CLR
03:46 -16.2 °C -16.9 °C 34462.7 hPa Calm     91 % 0 mm 0.0 W/m2 CLR
03:51 -16.2 °C -16.9 °C 34462.7 hPa Calm     91 % 0 mm 0.0 W/m2 CLR
03:56 -16.2 °C -17 °C 34462.7 hPa Calm     91 % 0 mm 0.0 W/m2 CLR
04:01 -16.3 °C -17.1 °C 34462.7 hPa Calm     91 % 0 mm 0.0 W/m2 CLR
04:06 -16.3 °C -17.1 °C 34462.7 hPa Calm     91 % 0 mm 0.0 W/m2 CLR
04:11 -16.4 °C -17.1 °C 34462.7 hPa Calm     91 % 0 mm 0.0 W/m2 CLR
04:16 -16.4 °C -17.1 °C 34462.7 hPa Calm     92 % 0 mm 0.0 W/m2 CLR
04:21 -16.4 °C -17.1 °C 34462.7 hPa Calm     92 % 0 mm 0.0 W/m2 CLR
04:26 -16.4 °C -17.1 °C 34462.7 hPa Calm     92 % 0 mm 0.0 W/m2 CLR
04:31 -16.4 °C -17.1 °C 34462.7 hPa Calm     92 % 0 mm 0.0 W/m2 CLR
04:36 -16.3 °C -17 °C 34452.6 hPa Calm     92 % 0 mm 0.0 W/m2 CLR
04:41 -16.3 °C -16.9 °C 34452.6 hPa Calm     92 % 0 mm 0.0 W/m2 CLR
04:46 -16.3 °C -16.9 °C 34452.6 hPa Calm     92 % 0 mm 0.0 W/m2 CLR
04:51 -16.3 °C -17 °C 34452.6 hPa Calm     92 % 0 mm 0.0 W/m2 CLR
04:56 -16.4 °C -17.1 °C 34452.6 hPa Calm     92 % 0 mm 0.0 W/m2 CLR
05:01 -16.6 °C -17.3 °C 34452.6 hPa Calm     91 % 0 mm 0.0 W/m2 CLR
05:06 -16.6 °C -17.3 °C 34452.6 hPa Calm     92 % 0 mm 0.0 W/m2 CLR
05:11 -16.6 °C -17.3 °C 34452.6 hPa Calm     92 % 0 mm 0.0 W/m2 CLR
05:16 -16.5 °C -17.2 °C 34452.6 hPa Calm     92 % 0 mm 0.0 W/m2 CLR
05:21 -16.4 °C -17 °C 34452.6 hPa Calm     93 % 0 mm 0.0 W/m2 CLR
05:26 -16.5 °C -17.2 °C 34452.6 hPa Calm     92 % 0 mm 0.0 W/m2 CLR
05:31 -16.6 °C -17.2 °C 34452.6 hPa Calm     92 % 0 mm 0.0 W/m2 CLR
05:36 -16.5 °C -17.1 °C 34452.6 hPa Calm     93 % 0 mm 0.0 W/m2 CLR
05:41 -16.5 °C -17.1 °C 34452.6 hPa Calm     92 % 0 mm 0.0 W/m2 CLR
05:46 -16.5 °C -17.2 °C 34452.6 hPa Calm     92 % 0 mm 0.0 W/m2 CLR
05:51 -16.6 °C -17.3 °C 34452.6 hPa Calm     92 % 0 mm 0.0 W/m2 CLR
05:56 -16.6 °C -17.3 °C 34452.6 hPa Calm     92 % 0 mm 0.0 W/m2 CLR
06:01 -16.6 °C -17.3 °C 34452.6 hPa Calm     92 % 0 mm 0.0 W/m2 CLR
06:06 -16.6 °C -17.2 °C 34452.6 hPa Calm     92 % 0 mm 0.0 W/m2 CLR
06:11 -16.6 °C -17.2 °C 34452.6 hPa Calm     92 % 0 mm 0.0 W/m2 CLR
06:16 -16.5 °C -17.1 °C 34452.6 hPa Calm     93 % 0 mm 0.0 W/m2 CLR
06:21 -16.6 °C -17.3 °C 34452.6 hPa Calm     92 % 0 mm 0.0 W/m2 CLR
06:26 -16.6 °C -17.3 °C 34452.6 hPa Calm     92 % 0 mm 0.0 W/m2 CLR
06:31 -16.6 °C -17.3 °C 34452.6 hPa Calm     92 % 0 mm 0.0 W/m2 CLR
06:36 -16.7 °C -17.3 °C 34452.6 hPa Calm     92 % 0 mm 0.0 W/m2 CLR
06:37 -16.7 °C -17.3 °C 34452.6 hPa Calm     92 % 0 mm 0.0 W/m2 CLR
06:42 -16.7 °C -17.3 °C 34452.6 hPa Calm     92 % 0 mm 0.0 W/m2 CLR
06:47 -16.8 °C -17.4 °C 34452.6 hPa Calm     92 % 0 mm 0.0 W/m2 CLR
06:52 -16.8 °C -17.4 °C 34452.6 hPa Calm     92 % 0 mm 0.0 W/m2 CLR
06:57 -16.6 °C -17.2 °C 34452.6 hPa Calm     93 % 0 mm 0.0 W/m2 CLR
07:02 -16.6 °C -17.2 °C 34452.6 hPa Calm     93 % 0 mm 0.0 W/m2 CLR
07:07 -16.7 °C -17.3 °C 34452.6 hPa Calm     92 % 0 mm 0.0 W/m2 CLR
07:12 -16.8 °C -17.4 °C 34452.6 hPa Calm     92 % 0 mm 0.0 W/m2 CLR
07:17 -16.8 °C -17.4 °C 34452.6 hPa Calm     92 % 0 mm 0.0 W/m2 CLR
07:22 -16.8 °C -17.4 °C 34452.6 hPa Calm     92 % 0 mm 0.0 W/m2 CLR
07:27 -16.7 °C -17.3 °C 34452.6 hPa Calm     93 % 0 mm 0.0 W/m2 OVC
07:32 -16.7 °C -17.3 °C 34462.7 hPa Calm     93 % 0 mm 0.0 W/m2 OVC
07:37 -16.8 °C -17.4 °C 34452.6 hPa Calm     92 % 12.7 mm 5.0 W/m2 RA
07:42 -16.8 °C -17.5 °C 34462.7 hPa Calm     92 % 12.7 mm 9.0 W/m2 BKN
07:47 -16.9 °C -17.4 °C 34462.7 hPa Calm     93 % 12.7 mm 12.0 W/m2 BKN
07:52 -16.8 °C -17.4 °C 34452.6 hPa Calm     93 % 12.7 mm 16.0 W/m2 BKN
07:57 -16.8 °C -17.3 °C 34452.6 hPa Calm     93 % 12.7 mm 19.0 W/m2 BKN
08:02 -16.7 °C -17.3 °C 34452.6 hPa Calm     93 % 12.7 mm 25.0 W/m2 BKN
08:07 -16.6 °C -17.2 °C 34462.7 hPa Calm     93 % 12.7 mm 32.0 W/m2 BKN
08:12 -16.5 °C -17.1 °C 34462.7 hPa Calm     93 % 12.7 mm 37.0 W/m2 BKN
08:17 -16.3 °C -16.9 °C 34462.7 hPa Calm     93 % 12.7 mm 46.0 W/m2 SCT
08:22 -16.3 °C -16.8 °C 34462.7 hPa Calm     93 % 12.7 mm 53.0 W/m2 SCT
08:27 -16.2 °C -16.8 °C 34462.7 hPa Calm     93 % 12.7 mm 77.0 W/m2 FEW
08:32 -16.1 °C -16.7 °C 34462.7 hPa Calm     93 % 12.7 mm 90.0 W/m2 CLR
08:37 -15.9 °C -16.5 °C 34462.7 hPa Calm     93 % 0 mm 90.0 W/m2 CLR
08:42 -15.8 °C -16.3 °C 34462.7 hPa Calm     93 % 0 mm 113.0 W/m2 CLR
08:47 -15.7 °C -16.2 °C 34462.7 hPa Calm     93 % 0 mm 118.0 W/m2 CLR
08:52 -15.5 °C -16.2 °C 34462.7 hPa Calm     92 % 0 mm 130.0 W/m2 CLR
08:57 -15.3 °C -15.9 °C 34462.7 hPa Calm     92 % 0 mm 141.0 W/m2 CLR
09:02 -15.1 °C -15.7 °C 34462.7 hPa Calm     92 % 0 mm 134.0 W/m2 CLR
09:07 -14.8 °C -15.5 °C 34462.7 hPa Calm     92 % 0 mm 195.0 W/m2 CLR
09:12 -14.6 °C -15.3 °C 34462.7 hPa Calm     91 % 0 mm 181.0 W/m2 CLR
09:17 -14.4 °C -15.1 °C 34462.7 hPa Calm     91 % 0 mm 232.0 W/m2 CLR
09:22 -14.1 °C -15.1 °C 34462.7 hPa Calm     89 % 0 mm 236.0 W/m2 CLR
09:27 -13.8 °C -14.9 °C 34462.7 hPa Calm     87 % 0 mm 241.0 W/m2 CLR
09:32 -13.7 °C -14.8 °C 34462.7 hPa Calm     86 % 0 mm 287.0 W/m2 CLR
09:37 -13.4 °C -14.7 °C 34462.7 hPa Calm     85 % 0 mm 230.0 W/m2 CLR
09:42 -13.2 °C -14.7 °C 34462.7 hPa Calm     83 % 0 mm 216.0 W/m2 CLR
09:47 -13 °C -14.6 °C 34452.6 hPa Calm     82 % 0 mm 295.0 W/m2 CLR
09:52 -12.9 °C -14.5 °C 34462.7 hPa Calm     82 % 0 mm 394.0 W/m2 CLR
09:57 -12.6 °C -14.4 °C 34452.6 hPa Calm     80 % 0 mm 443.0 W/m2 CLR
10:02 -12.3 °C -14.2 °C 34452.6 hPa Calm     80 % 0 mm 464.0 W/m2 CLR
10:07 -12.1 °C -14.1 °C 34452.6 hPa Calm     78 % 0 mm 482.0 W/m2 CLR
10:12 -11.9 °C -14.1 °C 34452.6 hPa ESE 6 km/h 6 km/h 77 % 0 mm 385.0 W/m2 CLR
10:17 -11.8 °C -13.9 °C 34452.6 hPa Calm     77 % 0 mm 341.0 W/m2 CLR
10:23 -11.6 °C -13.7 °C 34452.6 hPa WNW 10.3 km/h 10.3 km/h 77 % 0 mm 292.0 W/m2 CLR
10:28 -11.2 °C -13.6 °C 34452.6 hPa NW 20.8 km/h 20.8 km/h 75 % 0 mm 308.0 W/m2 CLR
10:33 -10.9 °C -13.6 °C 34452.6 hPa NNW 26.9 km/h 26.9 km/h 72 % 0 mm 406.0 W/m2 CLR
10:38 -10.7 °C -13.5 °C 34442.4 hPa WNW 20.9 km/h 20.9 km/h 71 % 0 mm 464.0 W/m2 CLR
10:43 -10.5 °C -13.5 °C 34442.4 hPa WNW 20.9 km/h 20.9 km/h 70 % 0 mm 469.0 W/m2 CLR
10:48 -10.4 °C -13.4 °C 34442.4 hPa NNW 11.9 km/h 11.9 km/h 70 % 0 mm 415.0 W/m2 CLR
10:53 -10.3 °C -13.4 °C 34442.4 hPa WNW 20.9 km/h 22 km/h 69 % 0 mm 496.0 W/m2 CLR
10:58 -10.2 °C -13.4 °C 34442.4 hPa NW 20.9 km/h 20.9 km/h 68 % 0 mm 499.0 W/m2 CLR
11:03 -10.1 °C -13.3 °C 34442.4 hPa North 26.9 km/h 26.9 km/h 68 % 0 mm 517.0 W/m2 CLR
11:08 -10.2 °C -13.7 °C 34442.4 hPa NW 36.2 km/h 36.2 km/h 66 % 0 mm 510.0 W/m2 CLR
11:13 -10.3 °C -13.7 °C 34442.4 hPa NNW 35.7 km/h 35.7 km/h 66 % 0 mm 524.0 W/m2 CLR
11:18 -10.2 °C -13.6 °C 34442.4 hPa NW 50.7 km/h 50.7 km/h 67 % 0 mm 524.0 W/m2 CLR
11:23 -10.2 °C -13.5 °C 34442.4 hPa NW 35.7 km/h 35.7 km/h 67 % 0 mm 533.0 W/m2 CLR
11:28 -10.1 °C -13.7 °C 34428.8 hPa NW 44.7 km/h 44.7 km/h 65 % 0 mm 550.0 W/m2 CLR
11:33 -10 °C -13.5 °C 34428.8 hPa NW 32.8 km/h 32.8 km/h 66 % 0 mm 563.0 W/m2 CLR
11:38 -9.9 °C -13.6 °C 34428.8 hPa NW 32.8 km/h 32.8 km/h 65 % 0 mm 550.0 W/m2 CLR
11:43 -9.9 °C -13.6 °C 34428.8 hPa WNW 38.8 km/h 38.8 km/h 65 % 0 mm 541.0 W/m2 CLR
11:48 -9.8 °C -13.3 °C 34428.8 hPa WNW 20.9 km/h 20.9 km/h 66 % 0 mm 568.0 W/m2 CLR
11:53 -9.8 °C -13.5 °C 34418.7 hPa WNW 44.7 km/h 44.7 km/h 64 % 0 mm 575.0 W/m2 CLR
11:58 -9.8 °C -13.5 °C 34418.7 hPa WNW 38.8 km/h 38.8 km/h 64 % 0 mm 582.0 W/m2 CLR
12:03 -9.7 °C -13.4 °C 34418.7 hPa NW 32.8 km/h 32.8 km/h 64 % 0 mm 584.0 W/m2 CLR
12:08 -9.6 °C -13.3 °C 34418.7 hPa NNW 33.6 km/h 33.6 km/h 64 % 0 mm 594.0 W/m2 CLR
12:14 -9.6 °C -13.3 °C 34418.7 hPa NW 35.7 km/h 35.7 km/h 64 % 0 mm 603.0 W/m2 CLR
12:18 -9.4 °C -13.4 °C 34418.7 hPa NNW 47.6 km/h 47.6 km/h 62 % 0 mm 599.0 W/m2 CLR
12:24 -9.4 °C -13.3 °C 34418.7 hPa NW 29.8 km/h 29.8 km/h 63 % 0 mm 608.0 W/m2 CLR
12:29 -9.4 °C -13.3 °C 34405.1 hPa NW 29.8 km/h 29.8 km/h 63 % 0 mm 628.0 W/m2 CLR
12:34 -9.3 °C -13.3 °C 34395 hPa NNW 15 km/h 15 km/h 62 % 0 mm 621.0 W/m2 CLR
12:39 -9.2 °C -13.2 °C 34395 hPa West 17.9 km/h 17.9 km/h 62 % 0 mm 612.0 W/m2 CLR
12:44 -9.2 °C -13.7 °C 34395 hPa West 33.6 km/h 38.1 km/h 59 % 0 mm 504.0 W/m2 CLR
12:49 -9.3 °C -13.4 °C 34395 hPa WSW 28.5 km/h 28.5 km/h 61 % 0 mm 585.0 W/m2 CLR
12:54 -9.2 °C -13.6 °C 34395 hPa WNW 38.8 km/h 38.8 km/h 59 % 0 mm 584.0 W/m2 CLR
12:59 -9.1 °C -13.2 °C 34384.8 hPa NW 26.9 km/h 26.9 km/h 61 % 0 mm 621.0 W/m2 CLR
13:04 -8.9 °C -13.1 °C 34384.8 hPa WNW 44.7 km/h 44.7 km/h 61 % 0 mm 652.0 W/m2 CLR
13:09 -8.8 °C -13.2 °C 34371.3 hPa WNW 36.2 km/h 36.2 km/h 60 % 0 mm 659.0 W/m2 CLR
13:14 -8.7 °C -13.2 °C 34371.3 hPa NW 32.8 km/h 32.8 km/h 59 % 0 mm 643.0 W/m2 CLR
13:19 -8.7 °C -13.3 °C 34371.3 hPa NW 36.2 km/h 36.2 km/h 58 % 0 mm 649.0 W/m2 CLR
13:24 -8.7 °C -13.7 °C 34361.1 hPa West 20.9 km/h 20.9 km/h 55 % 0 mm 687.0 W/m2 CLR
13:29 -8.6 °C -13.5 °C 34361.1 hPa West 49.2 km/h 49.2 km/h 56 % 0 mm 666.0 W/m2 CLR
13:34 -8.6 °C -13.9 °C 34347.6 hPa WNW 47.6 km/h 47.6 km/h 53 % 0 mm 657.0 W/m2 CLR
13:39 -8.4 °C -13.9 °C 34347.6 hPa WNW 20.9 km/h 20.9 km/h 52 % 0 mm 670.0 W/m2 CLR
13:44 -8.3 °C -13.8 °C 34347.6 hPa NNW 44.7 km/h 44.7 km/h 52 % 0 mm 659.0 W/m2 CLR
13:49 -8.3 °C -13.9 °C 34337.4 hPa NW 28.5 km/h 28.5 km/h 51 % 0 mm 624.0 W/m2 CLR
13:54 -8.2 °C -13.7 °C 34337.4 hPa West 29.8 km/h 29.8 km/h 52 % 0 mm 659.0 W/m2 CLR
13:59 -8.1 °C -13.9 °C 34337.4 hPa NW 15 km/h 15 km/h 50 % 0 mm 708.0 W/m2 CLR
14:04 -8.1 °C -14.1 °C 34337.4 hPa WNW 29.8 km/h 29.8 km/h 49 % 0 mm 649.0 W/m2 CLR
14:09 -8.1 °C -14.4 °C 34327.3 hPa NW 47.6 km/h 47.6 km/h 47 % 0 mm 640.0 W/m2 CLR
14:14 -8 °C -14.1 °C 34327.3 hPa West 44.7 km/h 44.7 km/h 49 % 0 mm 633.0 W/m2 CLR
14:19 -8.2 °C -14.2 °C 34327.3 hPa WNW 41.7 km/h 41.7 km/h 49 % 0 mm 621.0 W/m2 CLR
14:24 -8.2 °C -13.9 °C 34327.3 hPa WNW 32.8 km/h 32.8 km/h 51 % 0 mm 610.0 W/m2 CLR
14:29 -8.1 °C -14 °C 34313.7 hPa WNW 29.8 km/h 29.8 km/h 50 % 0 mm 603.0 W/m2 CLR
14:34 -8.2 °C -14.2 °C 34313.7 hPa NW 29.8 km/h 29.8 km/h 49 % 0 mm 599.0 W/m2 CLR
14:39 -8.1 °C -14.3 °C 34313.7 hPa West 25.9 km/h 25.9 km/h 48 % 0 mm 596.0 W/m2 CLR
14:44 -8.1 °C -14.6 °C 34313.7 hPa West 26.9 km/h 26.9 km/h 46 % 0 mm 589.0 W/m2 CLR
14:49 -7.9 °C -14.1 °C 34303.6 hPa West 17.9 km/h 17.9 km/h 48 % 0 mm 584.0 W/m2 CLR
14:54 -7.8 °C -14.2 °C 34303.6 hPa WNW 17.9 km/h 17.9 km/h 47 % 0 mm 571.0 W/m2 CLR
14:59 -7.7 °C -14.1 °C 34303.6 hPa WNW 20.9 km/h 20.9 km/h 47 % 0 mm 563.0 W/m2 CLR
15:04 -7.7 °C -13.9 °C 34303.6 hPa WNW 20.9 km/h 20.9 km/h 48 % 0 mm 554.0 W/m2 CLR
15:09 -7.7 °C -14.3 °C 34303.6 hPa West 18.2 km/h 18.2 km/h 46 % 0 mm 543.0 W/m2 CLR
15:15 -7.7 °C -14.3 °C 34293.4 hPa NW 15.6 km/h 15.6 km/h 46 % 0 mm 536.0 W/m2 CLR
15:20 -7.7 °C -14.3 °C 34293.4 hPa WNW 29.8 km/h 29.8 km/h 46 % 0 mm 531.0 W/m2 CLR
15:25 -7.7 °C -14.1 °C 34293.4 hPa NW 32.8 km/h 32.8 km/h 47 % 0 mm 519.0 W/m2 CLR
15:30 -7.7 °C -14.6 °C 34293.4 hPa WNW 20.9 km/h 20.9 km/h 44 % 0 mm 510.0 W/m2 CLR
15:35 -7.7 °C -14.4 °C 34293.4 hPa WNW 20.9 km/h 20.9 km/h 45 % 0 mm 499.0 W/m2 CLR
15:40 -7.6 °C -14.4 °C 34279.9 hPa NW 32.8 km/h 32.8 km/h 45 % 0 mm 492.0 W/m2 CLR
15:45 -7.7 °C -14.6 °C 34279.9 hPa WSW 9 km/h 9 km/h 44 % 0 mm 478.0 W/m2 CLR
15:50 -7.6 °C -14.6 °C 34279.9 hPa SW 20.9 km/h 20.9 km/h 44 % 0 mm 469.0 W/m2 CLR
15:55 -7.4 °C -14.8 °C 34279.9 hPa WNW 17.9 km/h 19.2 km/h 42 % 0 mm 461.0 W/m2 CLR
16:00 -7.5 °C -14.6 °C 34279.9 hPa West 17.9 km/h 17.9 km/h 43 % 0 mm 450.0 W/m2 CLR
16:05 -7.4 °C -14.8 °C 34269.7 hPa NW 15.6 km/h 15.6 km/h 42 % 0 mm 434.0 W/m2 CLR
16:10 -7.4 °C -14.7 °C 34269.7 hPa WNW 33.6 km/h 33.6 km/h 42 % 0 mm 420.0 W/m2 CLR
16:15 -7.5 °C -14.8 °C 34269.7 hPa West 20.9 km/h 20.9 km/h 42 % 0 mm 406.0 W/m2 CLR
16:20 -7.6 °C -14.7 °C 34269.7 hPa WNW 9 km/h   43 % 0 mm 390.0 W/m2 CLR
16:25 -7.5 °C -15 °C 34269.7 hPa West 29.8 km/h 29.8 km/h 41 % 0 mm 378.0 W/m2 CLR
16:30 -7.6 °C -14.9 °C 34269.7 hPa WNW 9 km/h 9 km/h 42 % 0 mm 362.0 W/m2 CLR
16:35 -7.4 °C -14.6 °C 34269.7 hPa NNW 17.9 km/h 17.9 km/h 43 % 0 mm 348.0 W/m2 CLR
16:40 -7.4 °C -14.8 °C 34269.7 hPa NW 17.9 km/h 17.9 km/h 42 % 0 mm 339.0 W/m2 CLR
16:45 -7.5 °C -14.6 °C 34269.7 hPa WNW 9 km/h 9 km/h 43 % 0 mm 322.0 W/m2 CLR
16:50 -7.4 °C -14.8 °C 34256.2 hPa NW 26.9 km/h 26.9 km/h 42 % 0 mm 308.0 W/m2 CLR
16:55 -7.4 °C -14.8 °C 34256.2 hPa NW 29.8 km/h 29.8 km/h 42 % 0 mm 294.0 W/m2 CLR
17:00 -7.6 °C -14.8 °C 34256.2 hPa WNW 26.9 km/h 26.9 km/h 42 % 0 mm 279.0 W/m2 CLR
17:05 -7.5 °C -14.6 °C 34256.2 hPa NW 10.3 km/h 10.3 km/h 43 % 0 mm 264.0 W/m2 CLR
17:10 -7.4 °C -14.6 °C 34256.2 hPa West 20.8 km/h 20.8 km/h 43 % 0 mm 248.0 W/m2 CLR
17:15 -7.5 °C -14.6 °C 34256.2 hPa WNW 15.6 km/h 15.6 km/h 43 % 0 mm 232.0 W/m2 CLR
17:20 -7.6 °C -14.7 °C 34256.2 hPa NW 15 km/h 15 km/h 43 % 0 mm 214.0 W/m2 CLR
17:25 -7.6 °C -14.7 °C 34256.2 hPa WNW 20.9 km/h 20.9 km/h 43 % 0 mm 193.0 W/m2 CLR
17:30 -7.7 °C -14.6 °C 34256.2 hPa NW 9 km/h 9 km/h 44 % 0 mm 176.0 W/m2 CLR
17:35 -7.6 °C -14.6 °C 34246 hPa Calm     44 % 0 mm 158.0 W/m2 CLR
17:40 -7.6 °C -14.7 °C 34246 hPa NW 12.9 km/h 12.9 km/h 43 % 0 mm 142.0 W/m2 CLR
17:45 -7.6 °C -14.7 °C 34246 hPa WNW 15.6 km/h 15.6 km/h 43 % 0 mm 123.0 W/m2 CLR
17:50 -7.6 °C -14.7 °C 34246 hPa NW 12.9 km/h 12.9 km/h 43 % 0 mm 109.0 W/m2 CLR
17:55 -7.7 °C -14.8 °C 34246 hPa NW 11.9 km/h 11.9 km/h 43 % 0 mm 95.0 W/m2 CLR
18:00 -7.7 °C -14.8 °C 34246 hPa NNW 9 km/h 9 km/h 43 % 0 mm 72.0 W/m2 FEW
18:05 -7.7 °C -14.6 °C 34256.2 hPa NNW 17.9 km/h 17.9 km/h 44 % 0 mm 56.0 W/m2 SCT
18:10 -7.9 °C -14.8 °C 34256.2 hPa North 9 km/h 9 km/h 44 % 0 mm 46.0 W/m2 SCT
18:15 -7.9 °C -14.7 °C 34256.2 hPa North 9 km/h   45 % 0 mm 35.0 W/m2 BKN
18:20 -8 °C -14.7 °C 34256.2 hPa Calm     45 % 0 mm 26.0 W/m2 BKN
18:25 -8.1 °C -14.6 °C 34256.2 hPa Calm     46 % 0 mm 19.0 W/m2 BKN
18:30 -8.2 °C -14.7 °C 34256.2 hPa Calm     46 % 0 mm 14.0 W/m2 BKN
18:35 -8.4 °C -14.8 °C 34269.7 hPa NW 7.7 km/h 7.7 km/h 47 % 0 mm 11.0 W/m2 BKN
18:40 -8.6 °C -14.7 °C 34269.7 hPa NNW 3.1 km/h   48 % 0 mm 9.0 W/m2 BKN
18:45 -8.8 °C -14.7 °C 34269.7 hPa Calm     49 % 0 mm 7.0 W/m2 BKN
18:50 -8.9 °C -14.8 °C 34269.7 hPa WNW 9 km/h 9 km/h 49 % 0 mm 0.0 W/m2 OVC
18:55 -9.1 °C -14.8 °C 34269.7 hPa WNW 9 km/h 9 km/h 50 % 0 mm 0.0 W/m2 OVC
19:00 -9.2 °C -14.8 °C 34269.7 hPa Calm     51 % 0 mm 0.0 W/m2 CLR
19:05 -9.4 °C -14.9 °C 34269.7 hPa WNW 15.6 km/h 15.6 km/h 51 % 0 mm 0.0 W/m2 CLR
19:10 -9.5 °C -15.1 °C 34269.7 hPa NW 11.9 km/h 11.9 km/h 51 % 0 mm 0.0 W/m2 CLR
19:15 -9.6 °C -15.1 °C 34269.7 hPa WNW 11.9 km/h 11.9 km/h 51 % 0 mm 0.0 W/m2 CLR
19:20 -9.6 °C -15.2 °C 34279.9 hPa NW 9 km/h 9 km/h 51 % 0 mm 0.0 W/m2 CLR
19:25 -9.6 °C -15.2 °C 34279.9 hPa Calm     51 % 0 mm 0.0 W/m2 CLR
19:30 -9.6 °C -15.3 °C 34279.9 hPa Calm     50 % 0 mm 0.0 W/m2 CLR
19:35 -9.6 °C -15.3 °C 34293.4 hPa West 9 km/h 9 km/h 50 % 0 mm 0.0 W/m2 CLR
19:40 -9.6 °C -15.3 °C 34279.9 hPa WNW 11.9 km/h 11.9 km/h 50 % 0 mm 0.0 W/m2 CLR
19:45 -9.6 °C -15.4 °C 34279.9 hPa WNW 12.9 km/h 12.9 km/h 49 % 0 mm 0.0 W/m2 CLR
19:50 -9.6 °C -15.3 °C 34293.4 hPa WNW 15 km/h 15 km/h 50 % 0 mm 0.0 W/m2 CLR
19:55 -9.7 °C -15.4 °C 34293.4 hPa West 9 km/h 9 km/h 50 % 0 mm 0.0 W/m2 CLR
20:00 -9.7 °C -15.4 °C 34293.4 hPa West 23.8 km/h 23.8 km/h 50 % 0 mm 0.0 W/m2 CLR
20:05 -9.6 °C -15.4 °C 34293.4 hPa West 17.9 km/h 17.9 km/h 49 % 0 mm 0.0 W/m2 CLR
20:10 -9.6 °C -15.4 °C 34293.4 hPa WNW 17.9 km/h 17.9 km/h 49 % 0 mm 0.0 W/m2 CLR
20:15 -9.6 °C -15.3 °C 34293.4 hPa WNW 29.8 km/h 29.8 km/h 50 % 0 mm 0.0 W/m2 CLR
20:20 -9.5 °C -15.4 °C 34293.4 hPa WNW 35.7 km/h 35.7 km/h 49 % 0 mm 0.0 W/m2 CLR
20:25 -9.4 °C -15.3 °C 34293.4 hPa West 29.8 km/h 29.8 km/h 49 % 0 mm 0.0 W/m2 CLR
20:30 -9.4 °C -15.3 °C 34293.4 hPa WNW 47.6 km/h 47.6 km/h 49 % 0 mm 0.0 W/m2 CLR
20:35 -9.4 °C -15.3 °C 34293.4 hPa WNW 41.7 km/h 41.7 km/h 49 % 0 mm 0.0 W/m2 CLR
20:40 -9.6 °C -15.3 °C 34293.4 hPa West 44.7 km/h 44.7 km/h 50 % 0 mm 0.0 W/m2 CLR
20:45 -9.7 °C -15.4 °C 34293.4 hPa West 38.8 km/h 38.8 km/h 50 % 0 mm 0.0 W/m2 CLR
20:50 -9.8 °C -15.3 °C 34293.4 hPa WNW 41.4 km/h 41.4 km/h 51 % 0 mm 0.0 W/m2 CLR
20:55 -9.8 °C -15.3 °C 34293.4 hPa WNW 38.8 km/h 38.8 km/h 51 % 0 mm 0.0 W/m2 CLR
21:00 -9.8 °C -15.4 °C 34293.4 hPa West 38.8 km/h 38.8 km/h 51 % 0 mm 0.0 W/m2 CLR
21:05 -9.9 °C -15.4 °C 34293.4 hPa West 38.8 km/h 38.8 km/h 51 % 0 mm 0.0 W/m2 CLR
21:10 -9.9 °C -15.3 °C 34293.4 hPa WNW 38.8 km/h 38.8 km/h 52 % 0 mm 0.0 W/m2 CLR
21:16 -9.9 °C -15.4 °C 34303.6 hPa West 50.7 km/h 50.7 km/h 52 % 0 mm 0.0 W/m2 CLR
21:20 -9.9 °C -15.4 °C 34303.6 hPa WNW 38.8 km/h 38.8 km/h 52 % 0 mm 0.0 W/m2 CLR
21:26 -10.1 °C -15.4 °C 34303.6 hPa West 32.8 km/h 32.8 km/h 52 % 0 mm 0.0 W/m2 CLR
21:31 -10.1 °C -15.5 °C 34303.6 hPa West 38.8 km/h 38.8 km/h 52 % 0 mm 0.0 W/m2 CLR
21:36 -10.1 °C -15.5 °C 34313.7 hPa WSW 32.8 km/h 32.8 km/h 52 % 0 mm 0.0 W/m2 CLR
21:41 -10.1 °C -15.5 °C 34313.7 hPa WSW 32.8 km/h 32.8 km/h 52 % 0 mm 0.0 W/m2 CLR
21:46 -10.2 °C -15.5 °C 34313.7 hPa West 41.7 km/h 41.7 km/h 52 % 0 mm 0.0 W/m2 CLR
21:51 -10.2 °C -15.5 °C 34313.7 hPa West 38.8 km/h 38.8 km/h 52 % 0 mm 0.0 W/m2 CLR
21:56 -10.2 °C -15.5 °C 34313.7 hPa WNW 41.7 km/h 41.7 km/h 52 % 0 mm 0.0 W/m2 CLR
22:01 -10.2 °C -15.6 °C 34313.7 hPa West 35.7 km/h 35.7 km/h 52 % 0 mm 0.0 W/m2 CLR
22:06 -10.2 °C -15.4 °C 34313.7 hPa WSW 35.7 km/h 35.7 km/h 53 % 0 mm 0.0 W/m2 CLR
22:11 -10.4 °C -15.6 °C 34313.7 hPa West 35.7 km/h 35.7 km/h 53 % 0 mm 0.0 W/m2 CLR
22:16 -10.4 °C -15.4 °C 34313.7 hPa WSW 33.6 km/h 33.6 km/h 54 % 0 mm 0.0 W/m2 CLR
22:21 -10.5 °C -15.6 °C 34313.7 hPa WSW 23.8 km/h 23.8 km/h 54 % 0 mm 0.0 W/m2 CLR
22:26 -10.6 °C -15.5 °C 34313.7 hPa WSW 9 km/h 9 km/h 55 % 0 mm 0.0 W/m2 CLR
22:31 -10.7 °C -15.5 °C 34313.7 hPa SW 23.8 km/h 23.8 km/h 56 % 0 mm 0.0 W/m2 CLR
22:36 -10.7 °C -15.4 °C 34313.7 hPa West 50.7 km/h 50.7 km/h 56 % 0 mm 0.0 W/m2 CLR
22:41 -10.4 °C -15.4 °C 34313.7 hPa West 35.7 km/h 35.7 km/h 55 % 0 mm 0.0 W/m2 CLR
22:46 -10.4 °C -15.4 °C 34313.7 hPa West 29.8 km/h 29.8 km/h 55 % 0 mm 0.0 W/m2 CLR
22:51 -10.6 °C -15.4 °C 34313.7 hPa WSW 9 km/h 9 km/h 55 % 0 mm 0.0 W/m2 CLR
22:56 -10.7 °C -15.4 °C 34313.7 hPa WSW 9 km/h 9 km/h 56 % 0 mm 0.0 W/m2 CLR
23:01 -10.9 °C -15.5 °C 34303.6 hPa WSW 9 km/h 9 km/h 57 % 0 mm 0.0 W/m2 CLR
23:06 -11.1 °C -15.5 °C 34303.6 hPa WSW 9 km/h 9 km/h 58 % 0 mm 0.0 W/m2 CLR
23:11 -11.2 °C -15.5 °C 34303.6 hPa WSW 9 km/h 9 km/h 59 % 0 mm 0.0 W/m2 CLR
23:16 -11.2 °C -15.5 °C 34303.6 hPa Calm     59 % 0 mm 0.0 W/m2 CLR
23:21 -11.2 °C -15.5 °C 34303.6 hPa WSW 9 km/h 9 km/h 59 % 0 mm 0.0 W/m2 CLR
23:26 -11.2 °C -15.5 °C 34303.6 hPa Calm     59 % 0 mm 0.0 W/m2 CLR
23:31 -11.2 °C -15.4 °C 34293.4 hPa WSW 17.9 km/h 17.9 km/h 59 % 0 mm 0.0 W/m2 CLR
23:36 -11 °C -15.4 °C 34303.6 hPa West 9 km/h 9 km/h 58 % 0 mm 0.0 W/m2 CLR
23:37 -10.9 °C -15.6 °C 34293.4 hPa West 9 km/h 9 km/h 57 % 0 mm 0.0 W/m2 CLR
23:42 -10.9 °C -15.4 °C 34293.4 hPa West 23.8 km/h 23.8 km/h 57 % 0 mm 0.0 W/m2 CLR
23:47 -10.8 °C -15.5 °C 34293.4 hPa WSW 17.9 km/h 17.9 km/h 56 % 0 mm 0.0 W/m2 CLR
23:52 -10.8 °C -15.6 °C 34293.4 hPa West 11.9 km/h 11.9 km/h 56 % 0 mm 0.0 W/m2 CLR
23:57 -10.9 °C -15.5 °C 34293.4 hPa WSW 10.3 km/h 10.3 km/h 57 % 0 mm 0.0 W/m2 CLR
Lo Temps de Massalio
Compliments of Weather Underground - 1.25 mb